sensor_id;sensor_type;location;lat;lon;timestamp;P1;durP1;ratioP1;P2;durP2;ratioP2
56517;SDS011;42419;48.760;2.322;2023-07-31T00:01:44;5.93;;;3.40;;
56517;SDS011;42419;48.760;2.322;2023-07-31T00:04:09;3.83;;;3.10;;
56517;SDS011;42419;48.760;2.322;2023-07-31T00:06:34;6.07;;;3.00;;
56517;SDS011;42419;48.760;2.322;2023-07-31T00:09:00;4.60;;;2.50;;
56517;SDS011;42419;48.760;2.322;2023-07-31T00:11:25;6.00;;;3.17;;
56517;SDS011;42419;48.760;2.322;2023-07-31T00:13:50;3.77;;;2.60;;
56517;SDS011;42419;48.760;2.322;2023-07-31T00:16:18;4.30;;;2.80;;
56517;SDS011;42419;48.760;2.322;2023-07-31T00:18:43;5.57;;;2.80;;
56517;SDS011;42419;48.760;2.322;2023-07-31T00:21:08;4.37;;;3.07;;
56517;SDS011;42419;48.760;2.322;2023-07-31T00:23:34;6.30;;;2.97;;
56517;SDS011;42419;48.760;2.322;2023-07-31T00:25:59;4.30;;;2.97;;
56517;SDS011;42419;48.760;2.322;2023-07-31T00:28:24;4.30;;;2.73;;
56517;SDS011;42419;48.760;2.322;2023-07-31T00:30:50;4.00;;;3.00;;
56517;SDS011;42419;48.760;2.322;2023-07-31T00:33:15;7.20;;;3.00;;
56517;SDS011;42419;48.760;2.322;2023-07-31T00:35:40;3.17;;;2.83;;
56517;SDS011;42419;48.760;2.322;2023-07-31T00:38:05;4.27;;;3.87;;
56517;SDS011;42419;48.760;2.322;2023-07-31T00:40:34;5.30;;;3.13;;
56517;SDS011;42419;48.760;2.322;2023-07-31T00:43:03;6.33;;;3.37;;
56517;SDS011;42419;48.760;2.322;2023-07-31T00:45:28;3.37;;;2.83;;
56517;SDS011;42419;48.760;2.322;2023-07-31T00:47:54;4.23;;;2.93;;
56517;SDS011;42419;48.760;2.322;2023-07-31T00:50:19;3.63;;;2.77;;
56517;SDS011;42419;48.760;2.322;2023-07-31T00:52:45;4.33;;;2.70;;
56517;SDS011;42419;48.760;2.322;2023-07-31T00:55:10;4.47;;;3.00;;
56517;SDS011;42419;48.760;2.322;2023-07-31T00:57:36;3.60;;;2.53;;
56517;SDS011;42419;48.760;2.322;2023-07-31T01:00:03;4.47;;;2.20;;
56517;SDS011;42419;48.760;2.322;2023-07-31T01:02:28;3.93;;;2.53;;
56517;SDS011;42419;48.760;2.322;2023-07-31T01:04:57;3.87;;;2.77;;
56517;SDS011;42419;48.760;2.322;2023-07-31T01:10:07;4.93;;;2.80;;
56517;SDS011;42419;48.760;2.322;2023-07-31T01:12:45;3.73;;;2.93;;
56517;SDS011;42419;48.760;2.322;2023-07-31T01:15:11;3.63;;;3.30;;
56517;SDS011;42419;48.760;2.322;2023-07-31T01:17:40;5.50;;;3.17;;
56517;SDS011;42419;48.760;2.322;2023-07-31T01:20:20;4.27;;;2.70;;
56517;SDS011;42419;48.760;2.322;2023-07-31T01:31:07;3.53;;;2.57;;
56517;SDS011;42419;48.760;2.322;2023-07-31T01:33:36;3.60;;;2.90;;
56517;SDS011;42419;48.760;2.322;2023-07-31T01:36:02;5.30;;;3.27;;
56517;SDS011;42419;48.760;2.322;2023-07-31T01:38:29;5.70;;;2.80;;
56517;SDS011;42419;48.760;2.322;2023-07-31T01:40:54;3.57;;;2.60;;
56517;SDS011;42419;48.760;2.322;2023-07-31T01:43:19;4.63;;;2.63;;
56517;SDS011;42419;48.760;2.322;2023-07-31T01:45:45;5.80;;;3.10;;
56517;SDS011;42419;48.760;2.322;2023-07-31T01:48:10;5.20;;;3.00;;
56517;SDS011;42419;48.760;2.322;2023-07-31T01:50:35;4.30;;;2.50;;
56517;SDS011;42419;48.760;2.322;2023-07-31T01:53:01;5.17;;;2.80;;
56517;SDS011;42419;48.760;2.322;2023-07-31T01:55:26;3.70;;;2.20;;
56517;SDS011;42419;48.760;2.322;2023-07-31T01:57:51;6.90;;;3.10;;
56517;SDS011;42419;48.760;2.322;2023-07-31T02:00:17;3.63;;;3.00;;
56517;SDS011;42419;48.760;2.322;2023-07-31T02:02:43;3.47;;;2.50;;
56517;SDS011;42419;48.760;2.322;2023-07-31T02:05:08;5.70;;;3.27;;
56517;SDS011;42419;48.760;2.322;2023-07-31T02:07:33;4.13;;;2.90;;
56517;SDS011;42419;48.760;2.322;2023-07-31T02:09:59;5.30;;;3.77;;
56517;SDS011;42419;48.760;2.322;2023-07-31T02:12:24;5.13;;;3.20;;
56517;SDS011;42419;48.760;2.322;2023-07-31T02:14:49;6.97;;;2.40;;
56517;SDS011;42419;48.760;2.322;2023-07-31T02:17:15;3.90;;;3.10;;
56517;SDS011;42419;48.760;2.322;2023-07-31T02:19:40;4.00;;;3.07;;
56517;SDS011;42419;48.760;2.322;2023-07-31T02:22:05;3.77;;;2.50;;
56517;SDS011;42419;48.760;2.322;2023-07-31T02:24:31;7.70;;;2.70;;
56517;SDS011;42419;48.760;2.322;2023-07-31T02:26:56;3.83;;;2.70;;
56517;SDS011;42419;48.760;2.322;2023-07-31T02:29:22;4.07;;;2.80;;
56517;SDS011;42419;48.760;2.322;2023-07-31T02:31:47;3.60;;;2.83;;
56517;SDS011;42419;48.760;2.322;2023-07-31T02:34:13;4.60;;;2.80;;
56517;SDS011;42419;48.760;2.322;2023-07-31T02:36:38;6.77;;;3.30;;
56517;SDS011;42419;48.760;2.322;2023-07-31T02:39:03;3.30;;;2.37;;
56517;SDS011;42419;48.760;2.322;2023-07-31T02:41:28;3.17;;;2.50;;
56517;SDS011;42419;48.760;2.322;2023-07-31T02:43:55;4.30;;;2.63;;
56517;SDS011;42419;48.760;2.322;2023-07-31T02:46:20;3.70;;;2.40;;
56517;SDS011;42419;48.760;2.322;2023-07-31T02:48:49;3.27;;;2.90;;
56517;SDS011;42419;48.760;2.322;2023-07-31T02:51:14;6.30;;;2.73;;
56517;SDS011;42419;48.760;2.322;2023-07-31T02:53:39;5.50;;;3.00;;
56517;SDS011;42419;48.760;2.322;2023-07-31T02:56:05;4.17;;;2.90;;
56517;SDS011;42419;48.760;2.322;2023-07-31T02:58:30;4.57;;;2.50;;
56517;SDS011;42419;48.760;2.322;2023-07-31T03:00:55;3.77;;;2.30;;
56517;SDS011;42419;48.760;2.322;2023-07-31T03:03:23;4.90;;;2.90;;
56517;SDS011;42419;48.760;2.322;2023-07-31T03:05:48;5.33;;;2.53;;
56517;SDS011;42419;48.760;2.322;2023-07-31T03:08:14;3.80;;;2.53;;
56517;SDS011;42419;48.760;2.322;2023-07-31T03:10:39;4.23;;;2.40;;
56517;SDS011;42419;48.760;2.322;2023-07-31T03:13:05;4.73;;;2.73;;
56517;SDS011;42419;48.760;2.322;2023-07-31T03:15:30;3.00;;;2.70;;
56517;SDS011;42419;48.760;2.322;2023-07-31T03:17:55;4.43;;;2.67;;
56517;SDS011;42419;48.760;2.322;2023-07-31T03:20:21;3.03;;;2.43;;
56517;SDS011;42419;48.760;2.322;2023-07-31T03:22:46;3.83;;;2.60;;
56517;SDS011;42419;48.760;2.322;2023-07-31T03:25:11;5.97;;;3.00;;
56517;SDS011;42419;48.760;2.322;2023-07-31T03:27:37;3.43;;;2.60;;
56517;SDS011;42419;48.760;2.322;2023-07-31T03:30:03;2.50;;;2.20;;
56517;SDS011;42419;48.760;2.322;2023-07-31T03:32:28;3.70;;;2.47;;
56517;SDS011;42419;48.760;2.322;2023-07-31T03:34:54;4.47;;;2.60;;
56517;SDS011;42419;48.760;2.322;2023-07-31T03:37:21;3.97;;;3.10;;
56517;SDS011;42419;48.760;2.322;2023-07-31T03:39:47;5.50;;;2.97;;
56517;SDS011;42419;48.760;2.322;2023-07-31T03:42:12;3.50;;;2.87;;
56517;SDS011;42419;48.760;2.322;2023-07-31T03:44:37;3.90;;;2.67;;
56517;SDS011;42419;48.760;2.322;2023-07-31T03:47:03;3.50;;;2.87;;
56517;SDS011;42419;48.760;2.322;2023-07-31T03:49:28;3.53;;;2.80;;
56517;SDS011;42419;48.760;2.322;2023-07-31T03:51:54;3.50;;;2.30;;
56517;SDS011;42419;48.760;2.322;2023-07-31T03:54:19;4.20;;;3.07;;
56517;SDS011;42419;48.760;2.322;2023-07-31T03:56:44;3.93;;;2.60;;
56517;SDS011;42419;48.760;2.322;2023-07-31T03:59:10;4.77;;;2.87;;
56517;SDS011;42419;48.760;2.322;2023-07-31T04:01:35;3.50;;;2.50;;
56517;SDS011;42419;48.760;2.322;2023-07-31T04:04:00;3.60;;;2.33;;
56517;SDS011;42419;48.760;2.322;2023-07-31T04:06:26;6.23;;;2.67;;
56517;SDS011;42419;48.760;2.322;2023-07-31T04:08:51;5.60;;;2.97;;
56517;SDS011;42419;48.760;2.322;2023-07-31T04:11:16;2.97;;;2.60;;
56517;SDS011;42419;48.760;2.322;2023-07-31T04:13:42;2.80;;;2.40;;
56517;SDS011;42419;48.760;2.322;2023-07-31T04:16:08;3.90;;;2.70;;
56517;SDS011;42419;48.760;2.322;2023-07-31T04:18:33;4.27;;;3.17;;
56517;SDS011;42419;48.760;2.322;2023-07-31T04:20:58;5.90;;;3.33;;
56517;SDS011;42419;48.760;2.322;2023-07-31T04:23:25;3.70;;;2.30;;
56517;SDS011;42419;48.760;2.322;2023-07-31T04:25:50;5.07;;;2.80;;
56517;SDS011;42419;48.760;2.322;2023-07-31T04:28:16;4.40;;;2.57;;
56517;SDS011;42419;48.760;2.322;2023-07-31T04:30:41;4.47;;;2.57;;
56517;SDS011;42419;48.760;2.322;2023-07-31T04:33:07;3.30;;;3.00;;
56517;SDS011;42419;48.760;2.322;2023-07-31T04:35:32;3.00;;;2.37;;
56517;SDS011;42419;48.760;2.322;2023-07-31T04:37:57;3.73;;;2.57;;
56517;SDS011;42419;48.760;2.322;2023-07-31T04:40:23;3.83;;;2.80;;
56517;SDS011;42419;48.760;2.322;2023-07-31T04:42:48;4.67;;;2.57;;
56517;SDS011;42419;48.760;2.322;2023-07-31T04:45:13;3.63;;;2.73;;
56517;SDS011;42419;48.760;2.322;2023-07-31T04:47:39;4.57;;;2.70;;
56517;SDS011;42419;48.760;2.322;2023-07-31T04:50:05;3.90;;;2.87;;
56517;SDS011;42419;48.760;2.322;2023-07-31T04:52:30;3.10;;;2.77;;
56517;SDS011;42419;48.760;2.322;2023-07-31T04:54:56;3.50;;;2.73;;
56517;SDS011;42419;48.760;2.322;2023-07-31T04:57:21;5.23;;;3.13;;
56517;SDS011;42419;48.760;2.322;2023-07-31T04:59:46;5.23;;;2.73;;
56517;SDS011;42419;48.760;2.322;2023-07-31T05:02:12;7.17;;;3.17;;
56517;SDS011;42419;48.760;2.322;2023-07-31T05:04:38;4.53;;;3.13;;
56517;SDS011;42419;48.760;2.322;2023-07-31T05:07:03;3.13;;;2.57;;
56517;SDS011;42419;48.760;2.322;2023-07-31T05:09:29;4.13;;;3.00;;
56517;SDS011;42419;48.760;2.322;2023-07-31T05:11:54;5.73;;;3.30;;
56517;SDS011;42419;48.760;2.322;2023-07-31T05:14:20;4.30;;;3.20;;
56517;SDS011;42419;48.760;2.322;2023-07-31T05:16:45;4.80;;;3.50;;
56517;SDS011;42419;48.760;2.322;2023-07-31T05:19:10;4.33;;;3.17;;
56517;SDS011;42419;48.760;2.322;2023-07-31T05:21:36;6.23;;;3.33;;
56517;SDS011;42419;48.760;2.322;2023-07-31T05:24:01;6.03;;;3.53;;
56517;SDS011;42419;48.760;2.322;2023-07-31T05:26:27;4.40;;;3.20;;
56517;SDS011;42419;48.760;2.322;2023-07-31T05:28:52;7.37;;;3.93;;
56517;SDS011;42419;48.760;2.322;2023-07-31T05:31:17;5.50;;;3.17;;
56517;SDS011;42419;48.760;2.322;2023-07-31T05:33:43;5.63;;;2.73;;
56517;SDS011;42419;48.760;2.322;2023-07-31T05:36:08;4.30;;;3.40;;
56517;SDS011;42419;48.760;2.322;2023-07-31T05:38:34;5.43;;;3.77;;
56517;SDS011;42419;48.760;2.322;2023-07-31T05:40:59;6.27;;;3.47;;
56517;SDS011;42419;48.760;2.322;2023-07-31T05:43:24;8.10;;;4.07;;
56517;SDS011;42419;48.760;2.322;2023-07-31T05:45:50;8.43;;;4.43;;
56517;SDS011;42419;48.760;2.322;2023-07-31T05:48:16;6.77;;;3.83;;
56517;SDS011;42419;48.760;2.322;2023-07-31T05:50:42;5.20;;;3.53;;
56517;SDS011;42419;48.760;2.322;2023-07-31T05:53:08;7.90;;;4.00;;
56517;SDS011;42419;48.760;2.322;2023-07-31T05:55:33;6.63;;;4.03;;
56517;SDS011;42419;48.760;2.322;2023-07-31T05:57:59;6.40;;;4.30;;
56517;SDS011;42419;48.760;2.322;2023-07-31T06:00:24;4.73;;;3.83;;
56517;SDS011;42419;48.760;2.322;2023-07-31T06:02:52;7.20;;;4.50;;
56517;SDS011;42419;48.760;2.322;2023-07-31T06:05:17;7.70;;;3.83;;
56517;SDS011;42419;48.760;2.322;2023-07-31T06:07:43;4.90;;;3.80;;
56517;SDS011;42419;48.760;2.322;2023-07-31T06:10:08;8.10;;;4.00;;
56517;SDS011;42419;48.760;2.322;2023-07-31T06:12:34;8.83;;;4.30;;
56517;SDS011;42419;48.760;2.322;2023-07-31T06:15:00;7.33;;;4.30;;
56517;SDS011;42419;48.760;2.322;2023-07-31T06:17:26;5.80;;;4.10;;
56517;SDS011;42419;48.760;2.322;2023-07-31T06:19:52;6.40;;;4.60;;
56517;SDS011;42419;48.760;2.322;2023-07-31T06:22:18;6.60;;;4.40;;
56517;SDS011;42419;48.760;2.322;2023-07-31T06:24:43;5.13;;;3.50;;
56517;SDS011;42419;48.760;2.322;2023-07-31T06:27:09;7.40;;;4.17;;
56517;SDS011;42419;48.760;2.322;2023-07-31T06:29:35;4.90;;;3.77;;
56517;SDS011;42419;48.760;2.322;2023-07-31T06:32:00;6.53;;;4.00;;
56517;SDS011;42419;48.760;2.322;2023-07-31T06:34:25;10.27;;;4.60;;
56517;SDS011;42419;48.760;2.322;2023-07-31T06:36:51;6.90;;;4.00;;
56517;SDS011;42419;48.760;2.322;2023-07-31T06:39:16;8.00;;;4.70;;
56517;SDS011;42419;48.760;2.322;2023-07-31T06:41:42;7.90;;;4.27;;
56517;SDS011;42419;48.760;2.322;2023-07-31T06:44:08;9.30;;;3.90;;
56517;SDS011;42419;48.760;2.322;2023-07-31T06:46:33;6.00;;;4.70;;
56517;SDS011;42419;48.760;2.322;2023-07-31T06:48:58;6.03;;;4.27;;
56517;SDS011;42419;48.760;2.322;2023-07-31T06:51:24;7.87;;;4.50;;
56517;SDS011;42419;48.760;2.322;2023-07-31T06:53:52;8.10;;;4.87;;
56517;SDS011;42419;48.760;2.322;2023-07-31T06:56:18;6.43;;;4.30;;
56517;SDS011;42419;48.760;2.322;2023-07-31T06:58:43;8.70;;;4.67;;
56517;SDS011;42419;48.760;2.322;2023-07-31T07:01:08;9.30;;;4.90;;
56517;SDS011;42419;48.760;2.322;2023-07-31T07:03:34;9.17;;;4.70;;
56517;SDS011;42419;48.760;2.322;2023-07-31T07:05:59;8.57;;;4.67;;
56517;SDS011;42419;48.760;2.322;2023-07-31T07:08:25;9.07;;;4.50;;
56517;SDS011;42419;48.760;2.322;2023-07-31T07:10:50;7.93;;;4.20;;
56517;SDS011;42419;48.760;2.322;2023-07-31T07:13:15;5.93;;;4.17;;
56517;SDS011;42419;48.760;2.322;2023-07-31T07:15:43;9.40;;;4.67;;
56517;SDS011;42419;48.760;2.322;2023-07-31T07:18:08;6.70;;;4.23;;
56517;SDS011;42419;48.760;2.322;2023-07-31T07:20:35;7.00;;;4.70;;
56517;SDS011;42419;48.760;2.322;2023-07-31T07:23:00;7.03;;;4.70;;
56517;SDS011;42419;48.760;2.322;2023-07-31T07:25:26;8.57;;;4.60;;
56517;SDS011;42419;48.760;2.322;2023-07-31T07:27:51;9.83;;;5.30;;
56517;SDS011;42419;48.760;2.322;2023-07-31T07:30:16;6.47;;;4.33;;
56517;SDS011;42419;48.760;2.322;2023-07-31T07:32:42;9.43;;;5.47;;
56517;SDS011;42419;48.760;2.322;2023-07-31T07:35:08;5.63;;;4.00;;
56517;SDS011;42419;48.760;2.322;2023-07-31T07:37:33;7.30;;;4.80;;
56517;SDS011;42419;48.760;2.322;2023-07-31T07:39:59;6.33;;;4.87;;
56517;SDS011;42419;48.760;2.322;2023-07-31T07:42:24;8.70;;;4.60;;
56517;SDS011;42419;48.760;2.322;2023-07-31T07:44:49;8.10;;;4.57;;
56517;SDS011;42419;48.760;2.322;2023-07-31T07:47:15;6.40;;;4.93;;
56517;SDS011;42419;48.760;2.322;2023-07-31T07:49:40;7.47;;;5.27;;
56517;SDS011;42419;48.760;2.322;2023-07-31T07:52:05;8.27;;;4.73;;
56517;SDS011;42419;48.760;2.322;2023-07-31T07:54:31;6.90;;;5.00;;
56517;SDS011;42419;48.760;2.322;2023-07-31T07:56:57;8.27;;;4.23;;
56517;SDS011;42419;48.760;2.322;2023-07-31T07:59:22;7.37;;;4.63;;
56517;SDS011;42419;48.760;2.322;2023-07-31T08:01:47;6.87;;;4.00;;
56517;SDS011;42419;48.760;2.322;2023-07-31T08:04:13;9.00;;;4.67;;
56517;SDS011;42419;48.760;2.322;2023-07-31T08:06:38;6.63;;;4.63;;
56517;SDS011;42419;48.760;2.322;2023-07-31T08:09:03;9.10;;;4.93;;
56517;SDS011;42419;48.760;2.322;2023-07-31T08:11:31;9.77;;;4.60;;
56517;SDS011;42419;48.760;2.322;2023-07-31T08:13:59;7.07;;;4.60;;
56517;SDS011;42419;48.760;2.322;2023-07-31T08:16:27;6.10;;;4.80;;
56517;SDS011;42419;48.760;2.322;2023-07-31T08:18:53;7.60;;;4.20;;
56517;SDS011;42419;48.760;2.322;2023-07-31T08:21:18;9.80;;;4.57;;
56517;SDS011;42419;48.760;2.322;2023-07-31T08:23:43;7.67;;;4.87;;
56517;SDS011;42419;48.760;2.322;2023-07-31T08:26:14;6.30;;;4.50;;
56517;SDS011;42419;48.760;2.322;2023-07-31T08:28:42;9.73;;;5.10;;
56517;SDS011;42419;48.760;2.322;2023-07-31T08:31:08;6.50;;;4.00;;
56517;SDS011;42419;48.760;2.322;2023-07-31T08:33:33;7.10;;;4.43;;
56517;SDS011;42419;48.760;2.322;2023-07-31T08:35:58;5.83;;;4.07;;
56517;SDS011;42419;48.760;2.322;2023-07-31T08:38:24;6.70;;;4.40;;
56517;SDS011;42419;48.760;2.322;2023-07-31T08:40:50;9.17;;;5.17;;
56517;SDS011;42419;48.760;2.322;2023-07-31T08:43:16;7.60;;;4.57;;
56517;SDS011;42419;48.760;2.322;2023-07-31T08:45:41;6.77;;;4.60;;
56517;SDS011;42419;48.760;2.322;2023-07-31T08:48:07;8.43;;;4.17;;
56517;SDS011;42419;48.760;2.322;2023-07-31T08:50:32;6.00;;;4.50;;
56517;SDS011;42419;48.760;2.322;2023-07-31T08:52:58;7.63;;;4.20;;
56517;SDS011;42419;48.760;2.322;2023-07-31T08:55:24;6.30;;;4.23;;
56517;SDS011;42419;48.760;2.322;2023-07-31T08:57:50;5.60;;;4.07;;
56517;SDS011;42419;48.760;2.322;2023-07-31T09:00:20;6.50;;;4.57;;
56517;SDS011;42419;48.760;2.322;2023-07-31T09:02:48;7.27;;;3.80;;
56517;SDS011;42419;48.760;2.322;2023-07-31T09:05:16;7.07;;;4.30;;
56517;SDS011;42419;48.760;2.322;2023-07-31T09:07:42;6.90;;;4.20;;
56517;SDS011;42419;48.760;2.322;2023-07-31T09:10:11;7.17;;;3.63;;
56517;SDS011;42419;48.760;2.322;2023-07-31T09:12:36;6.00;;;4.13;;
56517;SDS011;42419;48.760;2.322;2023-07-31T09:15:03;5.10;;;3.73;;
56517;SDS011;42419;48.760;2.322;2023-07-31T09:17:29;7.20;;;4.40;;
56517;SDS011;42419;48.760;2.322;2023-07-31T09:19:56;7.93;;;4.87;;
56517;SDS011;42419;48.760;2.322;2023-07-31T09:22:32;6.53;;;4.27;;
56517;SDS011;42419;48.760;2.322;2023-07-31T09:25:04;10.10;;;4.63;;
56517;SDS011;42419;48.760;2.322;2023-07-31T09:27:49;8.33;;;4.40;;
56517;SDS011;42419;48.760;2.322;2023-07-31T09:30:16;8.33;;;4.00;;
56517;SDS011;42419;48.760;2.322;2023-07-31T09:32:43;6.70;;;4.40;;
56517;SDS011;42419;48.760;2.322;2023-07-31T09:35:51;7.07;;;3.63;;
56517;SDS011;42419;48.760;2.322;2023-07-31T09:38:14;6.80;;;3.93;;
56517;SDS011;42419;48.760;2.322;2023-07-31T09:40:41;7.23;;;4.70;;
56517;SDS011;42419;48.760;2.322;2023-07-31T09:43:08;7.10;;;4.43;;
56517;SDS011;42419;48.760;2.322;2023-07-31T09:45:36;8.80;;;4.07;;
56517;SDS011;42419;48.760;2.322;2023-07-31T09:48:03;5.30;;;4.00;;
56517;SDS011;42419;48.760;2.322;2023-07-31T09:50:34;7.17;;;4.00;;
56517;SDS011;42419;48.760;2.322;2023-07-31T09:53:02;6.30;;;3.70;;
56517;SDS011;42419;48.760;2.322;2023-07-31T09:55:27;9.03;;;4.30;;
56517;SDS011;42419;48.760;2.322;2023-07-31T09:57:54;7.60;;;4.60;;
56517;SDS011;42419;48.760;2.322;2023-07-31T10:00:22;4.73;;;3.70;;
56517;SDS011;42419;48.760;2.322;2023-07-31T10:02:50;6.30;;;4.13;;
56517;SDS011;42419;48.760;2.322;2023-07-31T10:05:16;4.90;;;3.63;;
56517;SDS011;42419;48.760;2.322;2023-07-31T10:07:43;5.63;;;3.93;;
56517;SDS011;42419;48.760;2.322;2023-07-31T10:10:16;6.13;;;4.10;;
56517;SDS011;42419;48.760;2.322;2023-07-31T10:12:41;5.77;;;3.67;;
56517;SDS011;42419;48.760;2.322;2023-07-31T10:15:09;6.13;;;4.40;;
56517;SDS011;42419;48.760;2.322;2023-07-31T10:17:35;5.73;;;3.33;;
56517;SDS011;42419;48.760;2.322;2023-07-31T10:20:01;6.47;;;3.43;;
56517;SDS011;42419;48.760;2.322;2023-07-31T10:22:29;6.80;;;3.93;;
56517;SDS011;42419;48.760;2.322;2023-07-31T10:24:55;5.80;;;3.77;;
56517;SDS011;42419;48.760;2.322;2023-07-31T10:27:23;5.80;;;4.33;;
56517;SDS011;42419;48.760;2.322;2023-07-31T10:29:48;5.37;;;3.93;;
56517;SDS011;42419;48.760;2.322;2023-07-31T10:32:14;6.33;;;4.40;;
56517;SDS011;42419;48.760;2.322;2023-07-31T10:34:42;5.50;;;4.10;;
56517;SDS011;42419;48.760;2.322;2023-07-31T10:42:20;7.80;;;5.00;;
56517;SDS011;42419;48.760;2.322;2023-07-31T10:44:52;5.83;;;4.20;;
56517;SDS011;42419;48.760;2.322;2023-07-31T10:47:22;5.93;;;4.27;;
56517;SDS011;42419;48.760;2.322;2023-07-31T10:49:48;5.80;;;4.20;;
56517;SDS011;42419;48.760;2.322;2023-07-31T10:52:13;7.70;;;4.97;;
56517;SDS011;42419;48.760;2.322;2023-07-31T10:54:44;7.10;;;4.30;;
56517;SDS011;42419;48.760;2.322;2023-07-31T10:57:22;5.87;;;4.33;;
56517;SDS011;42419;48.760;2.322;2023-07-31T10:59:48;7.00;;;4.50;;
56517;SDS011;42419;48.760;2.322;2023-07-31T11:02:24;4.33;;;3.80;;
56517;SDS011;42419;48.760;2.322;2023-07-31T11:05:07;9.30;;;4.47;;
56517;SDS011;42419;48.760;2.322;2023-07-31T11:07:48;5.57;;;4.00;;
56517;SDS011;42419;48.760;2.322;2023-07-31T11:10:17;7.33;;;5.10;;
56517;SDS011;42419;48.760;2.322;2023-07-31T11:12:44;5.07;;;4.13;;
56517;SDS011;42419;48.760;2.322;2023-07-31T11:15:11;6.90;;;4.17;;
56517;SDS011;42419;48.760;2.322;2023-07-31T11:17:39;5.30;;;3.93;;
56517;SDS011;42419;48.760;2.322;2023-07-31T11:20:05;7.50;;;4.50;;
56517;SDS011;42419;48.760;2.322;2023-07-31T11:22:32;7.57;;;4.70;;
56517;SDS011;42419;48.760;2.322;2023-07-31T11:24:59;6.93;;;4.20;;
56517;SDS011;42419;48.760;2.322;2023-07-31T11:27:27;4.50;;;3.93;;
56517;SDS011;42419;48.760;2.322;2023-07-31T11:29:59;5.70;;;4.53;;
56517;SDS011;42419;48.760;2.322;2023-07-31T11:32:25;11.73;;;4.77;;
56517;SDS011;42419;48.760;2.322;2023-07-31T11:34:51;7.40;;;4.50;;
56517;SDS011;42419;48.760;2.322;2023-07-31T11:37:18;7.50;;;4.57;;
56517;SDS011;42419;48.760;2.322;2023-07-31T11:39:43;6.40;;;4.50;;
56517;SDS011;42419;48.760;2.322;2023-07-31T11:42:08;7.67;;;5.10;;
56517;SDS011;42419;48.760;2.322;2023-07-31T11:44:38;10.43;;;5.37;;
56517;SDS011;42419;48.760;2.322;2023-07-31T11:47:06;7.90;;;5.40;;
56517;SDS011;42419;48.760;2.322;2023-07-31T11:49:31;6.90;;;4.30;;
56517;SDS011;42419;48.760;2.322;2023-07-31T11:51:57;5.90;;;4.90;;
56517;SDS011;42419;48.760;2.322;2023-07-31T11:54:22;6.57;;;4.70;;
56517;SDS011;42419;48.760;2.322;2023-07-31T11:56:48;7.80;;;4.37;;
56517;SDS011;42419;48.760;2.322;2023-07-31T11:59:14;9.67;;;5.17;;
56517;SDS011;42419;48.760;2.322;2023-07-31T12:01:40;6.40;;;4.50;;
56517;SDS011;42419;48.760;2.322;2023-07-31T12:04:05;10.20;;;5.43;;
56517;SDS011;42419;48.760;2.322;2023-07-31T12:06:32;8.80;;;4.67;;
56517;SDS011;42419;48.760;2.322;2023-07-31T12:09:04;8.17;;;4.80;;
56517;SDS011;42419;48.760;2.322;2023-07-31T12:11:30;7.17;;;4.23;;
56517;SDS011;42419;48.760;2.322;2023-07-31T12:13:56;5.17;;;4.10;;
56517;SDS011;42419;48.760;2.322;2023-07-31T12:16:22;7.87;;;4.80;;
56517;SDS011;42419;48.760;2.322;2023-07-31T12:18:51;4.97;;;3.80;;
56517;SDS011;42419;48.760;2.322;2023-07-31T12:21:17;9.93;;;4.43;;
56517;SDS011;42419;48.760;2.322;2023-07-31T12:23:44;5.80;;;4.10;;
56517;SDS011;42419;48.760;2.322;2023-07-31T12:26:12;4.50;;;3.50;;
56517;SDS011;42419;48.760;2.322;2023-07-31T12:28:42;5.97;;;4.00;;
56517;SDS011;42419;48.760;2.322;2023-07-31T12:33:42;5.30;;;4.20;;
56517;SDS011;42419;48.760;2.322;2023-07-31T12:36:09;10.13;;;4.60;;
56517;SDS011;42419;48.760;2.322;2023-07-31T12:38:35;8.40;;;4.63;;
56517;SDS011;42419;48.760;2.322;2023-07-31T12:41:00;6.47;;;4.53;;
56517;SDS011;42419;48.760;2.322;2023-07-31T12:43:26;5.77;;;4.17;;
56517;SDS011;42419;48.760;2.322;2023-07-31T12:45:51;4.87;;;3.90;;
56517;SDS011;42419;48.760;2.322;2023-07-31T12:48:16;4.63;;;4.20;;
56517;SDS011;42419;48.760;2.322;2023-07-31T12:50:42;6.73;;;4.00;;
56517;SDS011;42419;48.760;2.322;2023-07-31T12:53:07;6.20;;;4.23;;
56517;SDS011;42419;48.760;2.322;2023-07-31T12:55:33;6.00;;;3.73;;
56517;SDS011;42419;48.760;2.322;2023-07-31T12:58:01;4.60;;;4.10;;
56517;SDS011;42419;48.760;2.322;2023-07-31T13:00:27;5.77;;;4.20;;
56517;SDS011;42419;48.760;2.322;2023-07-31T13:02:52;5.17;;;3.60;;
56517;SDS011;42419;48.760;2.322;2023-07-31T13:05:18;5.13;;;3.87;;
56517;SDS011;42419;48.760;2.322;2023-07-31T13:07:44;6.70;;;3.73;;
56517;SDS011;42419;48.760;2.322;2023-07-31T13:10:10;5.03;;;4.20;;
56517;SDS011;42419;48.760;2.322;2023-07-31T13:12:35;7.70;;;4.17;;
56517;SDS011;42419;48.760;2.322;2023-07-31T13:15:00;6.50;;;4.57;;
56517;SDS011;42419;48.760;2.322;2023-07-31T13:17:26;5.97;;;4.43;;
56517;SDS011;42419;48.760;2.322;2023-07-31T13:19:51;5.20;;;4.03;;
56517;SDS011;42419;48.760;2.322;2023-07-31T13:22:17;9.77;;;4.23;;
56517;SDS011;42419;48.760;2.322;2023-07-31T13:24:42;5.80;;;4.03;;
56517;SDS011;42419;48.760;2.322;2023-07-31T13:27:07;6.57;;;3.70;;
56517;SDS011;42419;48.760;2.322;2023-07-31T13:29:32;8.40;;;4.03;;
56517;SDS011;42419;48.760;2.322;2023-07-31T13:31:58;6.60;;;4.47;;
56517;SDS011;42419;48.760;2.322;2023-07-31T13:34:23;6.63;;;3.70;;
56517;SDS011;42419;48.760;2.322;2023-07-31T13:36:49;7.70;;;4.37;;
56517;SDS011;42419;48.760;2.322;2023-07-31T13:39:14;4.97;;;3.70;;
56517;SDS011;42419;48.760;2.322;2023-07-31T13:41:39;5.83;;;3.57;;
56517;SDS011;42419;48.760;2.322;2023-07-31T13:44:05;8.60;;;3.80;;
56517;SDS011;42419;48.760;2.322;2023-07-31T13:46:30;4.00;;;3.40;;
56517;SDS011;42419;48.760;2.322;2023-07-31T13:48:57;5.97;;;3.93;;
56517;SDS011;42419;48.760;2.322;2023-07-31T13:51:22;5.77;;;3.17;;
56517;SDS011;42419;48.760;2.322;2023-07-31T13:53:48;7.50;;;4.03;;
56517;SDS011;42419;48.760;2.322;2023-07-31T13:56:13;4.53;;;3.30;;
56517;SDS011;42419;48.760;2.322;2023-07-31T13:58:39;4.57;;;3.40;;
56517;SDS011;42419;48.760;2.322;2023-07-31T14:01:04;6.43;;;3.93;;
56517;SDS011;42419;48.760;2.322;2023-07-31T14:03:30;6.00;;;3.20;;
56517;SDS011;42419;48.760;2.322;2023-07-31T14:05:55;3.73;;;3.20;;
56517;SDS011;42419;48.760;2.322;2023-07-31T14:08:21;4.70;;;3.30;;
56517;SDS011;42419;48.760;2.322;2023-07-31T14:10:46;5.17;;;3.47;;
56517;SDS011;42419;48.760;2.322;2023-07-31T14:13:12;5.30;;;2.80;;
56517;SDS011;42419;48.760;2.322;2023-07-31T14:15:37;5.70;;;3.50;;
56517;SDS011;42419;48.760;2.322;2023-07-31T14:18:02;4.67;;;3.30;;
56517;SDS011;42419;48.760;2.322;2023-07-31T14:20:28;5.90;;;4.00;;
56517;SDS011;42419;48.760;2.322;2023-07-31T14:22:53;5.37;;;3.70;;
56517;SDS011;42419;48.760;2.322;2023-07-31T14:25:19;4.27;;;3.10;;
56517;SDS011;42419;48.760;2.322;2023-07-31T14:27:45;5.40;;;3.20;;
56517;SDS011;42419;48.760;2.322;2023-07-31T14:30:10;5.90;;;4.03;;
56517;SDS011;42419;48.760;2.322;2023-07-31T14:32:36;3.73;;;3.40;;
56517;SDS011;42419;48.760;2.322;2023-07-31T14:35:02;5.93;;;3.17;;
56517;SDS011;42419;48.760;2.322;2023-07-31T14:37:34;5.17;;;3.67;;
56517;SDS011;42419;48.760;2.322;2023-07-31T14:40:02;4.63;;;3.23;;
56517;SDS011;42419;48.760;2.322;2023-07-31T14:42:27;4.23;;;3.23;;
56517;SDS011;42419;48.760;2.322;2023-07-31T14:44:53;4.73;;;3.70;;
56517;SDS011;42419;48.760;2.322;2023-07-31T14:47:18;4.60;;;3.17;;
56517;SDS011;42419;48.760;2.322;2023-07-31T14:49:43;4.67;;;2.90;;
56517;SDS011;42419;48.760;2.322;2023-07-31T14:52:09;4.30;;;3.90;;
56517;SDS011;42419;48.760;2.322;2023-07-31T14:54:34;5.33;;;3.80;;
56517;SDS011;42419;48.760;2.322;2023-07-31T14:56:59;4.93;;;3.47;;
56517;SDS011;42419;48.760;2.322;2023-07-31T14:59:25;6.70;;;3.70;;
56517;SDS011;42419;48.760;2.322;2023-07-31T15:01:50;6.47;;;3.90;;